KAXN

Chandler Field Airport

Alexandria, Minnesota, USA
METAR KAXN 210353Z AUTO 34005KT 10SM CLR 21/18 A3002 RMK AO2 SLP159 T02110178
Observed Flight Rules
Jul-21 @ 03:53 UTC (30 minutes ago) Visual Flight Rules
Wind Visibility Clouds
340° at 5 knots 10 miles
  • Clear skies
Temperatures Readings
Current 21°C / 70°F
Dewpoint 18°C / 64°F
Humidity 83%
Altimeter 30.02" Hg
Pressure 1015.9 hPa
Elevation 433
METAR KAXN 210353Z AUTO 34005KT 10SM CLR 21/18 A3002 RMK AO2 SLP159 T02110178
Observed Flight Rules
Jul-21 @ 03:53 UTC
(30 minutes ago)
VFR
Wind Visibility
340° at 5 knots 10 miles
Clouds
  • Clear skies
Temperature Dewpoint
21°C / 70°F 18°C / 64°F
Humidity Altimeter Pressure
83% 30.02" Hg 1015.9 hPa